Time;durP1;ratioP1;P1;durP2;ratioP2;P2;SDS_P1;SDS_P2;PMS_P1;PMS_P2;Temp;Humidity;BMP_temperature;BMP_pressure;BME280_temperature;BME280_humidity;BME280_pressure;Samples;Min_cycle;Max_cycle;Signal;HPM_P1;HPM_P2
2022/05/01 00:00:26;;;;;;;;;16.00;14.00;;;;;22.27;38.56;101470.48;110410;1262;19357;-51
2022/05/01 00:03:04;;;;;;;;;16.33;16.00;;;;;22.28;38.68;101471.34;110491;1261;18293;-51
2022/05/01 00:05:31;;;;;;;;;17.00;16.33;;;;;22.28;38.64;101471.09;110364;1262;21829;-50
2022/05/01 00:07:59;;;;;;;;;18.00;17.67;;;;;22.28;38.58;101468.77;110412;1261;18698;-52
2022/05/01 00:10:27;;;;;;;;;16.00;14.00;;;;;22.27;38.59;101473.55;110440;1261;18291;-50
2022/05/01 00:12:54;;;;;;;;;16.67;15.33;;;;;22.28;38.58;101472.90;110470;1262;22212;-50
2022/05/01 00:15:21;;;;;;;;;18.00;17.33;;;;;22.28;38.72;101472.73;110345;1261;18689;-53
2022/05/01 00:17:48;;;;;;;;;21.00;19.33;;;;;22.28;38.61;101471.67;110451;1262;18668;-51
2022/05/01 00:20:16;;;;;;;;;16.33;15.33;;;;;22.28;38.79;101467.13;110339;1262;20124;-49
2022/05/01 00:22:43;;;;;;;;;15.33;13.00;;;;;22.28;38.86;101468.23;110424;1262;20962;-50
2022/05/01 00:25:10;;;;;;;;;19.33;17.67;;;;;22.27;38.67;101461.74;110424;1262;18164;-55
2022/05/01 00:27:37;;;;;;;;;17.00;17.00;;;;;22.27;38.64;101463.90;110417;1262;19000;-55
2022/05/01 00:30:05;;;;;;;;;21.00;16.50;;;;;22.27;38.84;101459.32;110471;1261;21857;-48
2022/05/01 00:36:25;;;;;;;;;17.00;16.50;;;;;22.27;38.77;101459.77;110392;1262;18224;-50
2022/05/01 00:38:05;;;;;;;;;17.00;17.00;;;;;22.27;38.77;101455.73;110318;1262;21549;-49
2022/05/01 00:40:32;;;;;;;;;17.00;16.33;;;;;22.27;38.69;101456.45;110306;1262;18492;-50
2022/05/01 00:42:59;;;;;;;;;18.67;17.33;;;;;22.27;38.71;101452.49;110282;1262;18983;-51
2022/05/01 00:45:26;;;;;;;;;17.00;16.00;;;;;22.27;38.82;101454.31;110428;1262;22078;-48
2022/05/01 00:47:53;;;;;;;;;17.67;17.00;;;;;22.26;38.87;101455.30;110440;1262;21605;-51
2022/05/01 00:50:21;;;;;;;;;17.00;16.67;;;;;22.26;38.81;101457.38;110400;1262;18678;-51
2022/05/01 00:52:48;;;;;;;;;16.33;16.00;;;;;22.25;38.79;101457.59;110393;1262;18738;-51
2022/05/01 00:55:15;;;;;;;;;16.00;15.00;;;;;22.25;38.78;101457.07;110392;1261;19564;-50
2022/05/01 00:57:42;;;;;;;;;17.67;17.67;;;;;22.26;38.74;101462.81;110419;1262;19061;-51
2022/05/01 01:00:10;;;;;;;;;17.67;17.00;;;;;22.26;38.85;101460.21;110500;1261;18865;-51
2022/05/01 01:02:38;;;;;;;;;17.00;17.00;;;;;22.25;38.88;101461.63;110401;1262;18183;-50
2022/05/01 01:05:05;;;;;;;;;20.67;17.00;;;;;22.25;38.75;101459.30;110426;1262;18916;-51
2022/05/01 01:07:33;;;;;;;;;16.67;16.00;;;;;22.24;38.74;101456.67;110400;1261;18688;-48
2022/05/01 01:10:01;;;;;;;;;16.00;14.00;;;;;22.24;38.77;101459.23;110432;1261;21952;-51
2022/05/01 01:15:13;;;;;;;;;17.00;17.00;;;;;22.25;38.82;101456.39;110489;1262;18743;-50
2022/05/01 01:17:41;;;;;;;;;16.00;14.00;;;;;22.25;38.95;101453.08;110383;1262;18200;-52
2022/05/01 01:20:09;;;;;;;;;18.00;17.00;;;;;22.24;38.92;101454.42;110405;1261;18746;-52
2022/05/01 01:22:37;;;;;;;;;17.33;16.33;;;;;22.25;38.86;101458.02;110348;1261;18862;-49
2022/05/01 01:25:04;;;;;;;;;20.00;17.67;;;;;22.25;38.84;101458.20;110417;1261;18216;-51
2022/05/01 01:27:31;;;;;;;;;19.00;17.00;;;;;22.25;38.70;101459.23;110378;1261;18783;-50
2022/05/01 01:32:43;;;;;;;;;19.00;17.67;;;;;22.25;38.99;101457.96;110359;1262;20582;-51
2022/05/01 01:35:11;;;;;;;;;16.67;16.67;;;;;22.25;38.84;101458.88;110370;1261;18833;-51
2022/05/01 01:37:38;;;;;;;;;21.00;20.00;;;;;22.24;38.84;101457.73;110377;1262;19135;-51
2022/05/01 01:40:06;;;;;;;;;17.00;16.33;;;;;22.24;38.98;101452.23;110407;1261;18287;-51
2022/05/01 01:42:33;;;;;;;;;17.00;16.00;;;;;22.24;39.06;101448.69;110343;1262;18695;-50
2022/05/01 01:45:00;;;;;;;;;20.00;18.33;;;;;22.24;38.94;101449.54;110434;1262;18778;-47
2022/05/01 01:47:27;;;;;;;;;21.00;18.50;;;;;22.24;38.93;101450.79;110415;1261;18506;-53
2022/05/01 01:49:54;;;;;;;;;21.00;19.00;;;;;22.25;39.02;101446.77;110350;1262;18693;-52
2022/05/01 01:52:22;;;;;;;;;17.33;17.33;;;;;22.24;38.88;101447.52;110334;1262;18686;-52
2022/05/01 01:54:49;;;;;;;;;17.33;17.00;;;;;22.24;39.11;101445.20;110425;1261;18273;-50
2022/05/01 01:57:16;;;;;;;;;19.33;17.00;;;;;22.24;38.88;101446.08;110477;1261;21434;-50
2022/05/01 01:59:43;;;;;;;;;17.67;16.67;;;;;22.24;38.99;101444.52;110396;1262;18731;-50
2022/05/01 02:02:11;;;;;;;;;19.00;18.33;;;;;22.24;38.95;101440.66;110378;1262;18199;-50
2022/05/01 02:04:38;;;;;;;;;20.67;20.67;;;;;22.24;38.97;101444.65;110350;1261;18760;-50
2022/05/01 02:07:05;;;;;;;;;21.00;18.00;;;;;22.24;38.92;101440.83;110439;1262;21933;-50
2022/05/01 02:09:37;;;;;;;;;18.00;18.00;;;;;22.25;38.95;101445.30;110417;1262;18171;-48
2022/05/01 02:12:04;;;;;;;;;22.00;18.00;;;;;22.24;39.05;101448.46;110510;1261;18877;-50
2022/05/01 02:14:32;;;;;;;;;25.00;18.50;;;;;22.24;39.16;101443.59;110403;1262;19331;-48
2022/05/01 02:16:59;;;;;;;;;21.00;18.00;;;;;22.24;39.12;101445.57;110368;1262;18512;-53
2022/05/01 02:19:26;;;;;;;;;17.50;17.00;;;;;22.24;39.10;101445.36;110422;1262;19042;-50
2022/05/01 02:21:54;;;;;;;;;19.00;17.67;;;;;22.23;39.01;101444.77;110402;1262;18734;-49
2022/05/01 02:24:21;;;;;;;;;20.00;19.00;;;;;22.23;39.03;101445.45;110437;1262;18250;-49
2022/05/01 02:26:49;;;;;;;;;18.00;15.33;;;;;22.24;39.05;101442.46;110379;1262;18789;-49
2022/05/01 02:29:16;;;;;;;;;21.00;20.00;;;;;22.23;39.14;101443.63;110376;1262;18842;-44
2022/05/01 02:31:43;;;;;;;;;18.00;17.33;;;;;22.24;39.02;101441.03;110402;1262;19245;-49
2022/05/01 02:34:11;;;;;;;;;21.00;18.00;;;;;22.24;38.97;101442.33;110430;1262;18772;-52
2022/05/01 02:36:38;;;;;;;;;20.00;20.00;;;;;22.23;38.91;101437.64;110423;1262;19005;-52
2022/05/01 02:39:05;;;;;;;;;18.00;16.00;;;;;22.23;39.02;101434.91;110439;1261;19224;-50
2022/05/01 02:41:33;;;;;;;;;20.00;16.00;;;;;22.24;38.99;101433.04;110410;1262;18733;-45
2022/05/01 02:44:00;;;;;;;;;19.00;17.00;;;;;22.23;38.84;101434.16;110383;1262;22009;-52
2022/05/01 02:46:27;;;;;;;;;16.67;13.67;;;;;22.22;39.05;101435.55;110359;1262;18581;-51
2022/05/01 02:48:54;;;;;;;;;19.00;17.00;;;;;22.22;39.25;101439.52;110293;1262;22213;-52
2022/05/01 02:51:23;;;;;;;;;24.00;20.33;;;;;22.24;39.16;101449.04;110454;1261;18762;-50
2022/05/01 02:53:50;;;;;;;;;18.00;18.00;;;;;22.23;39.01;101449.68;110342;1262;19269;-51
2022/05/01 02:56:17;;;;;;;;;17.67;17.00;;;;;22.22;39.11;101446.89;110300;1260;22070;-50
2022/05/01 02:58:45;;;;;;;;;18.00;17.00;;;;;22.22;39.01;101447.40;110300;1262;19567;-50
2022/05/01 03:01:12;;;;;;;;;20.50;17.00;;;;;22.22;39.18;101447.98;110342;1262;18303;-50
2022/05/01 03:03:39;;;;;;;;;20.00;17.33;;;;;22.21;39.05;101448.19;110331;1262;18711;-50
2022/05/01 03:06:06;;;;;;;;;22.33;20.67;;;;;22.22;38.98;101447.60;110317;1264;18741;-50
2022/05/01 03:08:34;;;;;;;;;21.00;20.00;;;;;22.22;39.14;101452.32;110274;1264;19562;-50
2022/05/01 03:11:01;;;;;;;;;20.00;18.00;;;;;22.21;39.24;101449.11;110276;1262;19195;-52
2022/05/01 03:13:28;;;;;;;;;19.67;18.67;;;;;22.21;39.12;101451.13;110370;1262;18992;-50
2022/05/01 03:15:56;;;;;;;;;20.33;18.67;;;;;22.22;38.94;101449.11;110261;1264;22052;-51
2022/05/01 03:23:53;;;;;;;;;20.67;17.00;;;;;22.20;39.21;101450.20;110359;1262;22148;-51
2022/05/01 03:26:21;;;;;;;;;23.67;20.67;;;;;22.21;39.15;101452.12;110313;1262;20597;-50
2022/05/01 03:28:48;;;;;;;;;17.67;17.33;;;;;22.20;39.24;101453.27;110311;1263;18863;-52
2022/05/01 03:31:15;;;;;;;;;22.00;20.00;;;;;22.20;39.20;101453.52;110315;1262;22164;-50
2022/05/01 03:33:42;;;;;;;;;23.50;19.00;;;;;22.19;39.23;101450.45;110331;1262;18740;-51
2022/05/01 03:36:10;;;;;;;;;22.00;20.00;;;;;22.20;39.30;101451.30;110335;1262;19621;-51
2022/05/01 03:38:37;;;;;;;;;21.00;20.67;;;;;22.20;39.22;101451.51;110311;1262;18385;-51
2022/05/01 03:41:05;;;;;;;;;21.33;20.00;;;;;22.20;39.28;101447.86;110411;1262;19010;-51
2022/05/01 03:43:33;;;;;;;;;22.00;20.00;;;;;22.19;39.22;101448.27;110379;1262;21818;-45
2022/05/01 03:46:00;;;;;;;;;23.33;20.00;;;;;22.18;39.26;101447.66;110292;1263;18235;-49
2022/05/01 03:48:27;;;;;;;;;20.33;17.67;;;;;22.19;39.38;101445.57;110348;1262;22080;-48
2022/05/01 03:50:55;;;;;;;;;20.67;19.33;;;;;22.19;39.38;101441.79;110340;1262;18703;-48
2022/05/01 03:53:22;;;;;;;;;21.00;18.00;;;;;22.19;39.36;101444.14;110402;1262;18408;-50
2022/05/01 03:55:49;;;;;;;;;24.50;20.50;;;;;22.20;39.29;101442.02;110444;1262;18730;-53
2022/05/01 03:58:16;;;;;;;;;25.33;22.00;;;;;22.20;39.26;101444.78;110437;1261;19037;-50
2022/05/01 04:00:44;;;;;;;;;21.00;20.67;;;;;22.19;39.29;101441.88;110482;1262;21519;-50
2022/05/01 04:03:12;;;;;;;;;24.33;21.00;;;;;22.19;39.30;101443.59;110484;1262;18795;-50
2022/05/01 04:05:40;;;;;;;;;19.00;17.00;;;;;22.19;39.08;101442.84;110398;1261;19431;-55
2022/05/01 04:08:08;;;;;;;;;20.00;19.00;;;;;22.20;39.26;101448.87;110449;1262;18178;-51
2022/05/01 04:10:35;;;;;;;;;23.00;20.00;;;;;22.20;39.39;101450.96;110278;1264;18685;-49
2022/05/01 04:13:03;;;;;;;;;21.33;20.33;;;;;22.19;39.37;101453.52;110457;1262;18751;-49
2022/05/01 04:15:30;;;;;;;;;20.50;20.00;;;;;22.20;39.32;101455.84;110499;1262;18603;-52
2022/05/01 04:17:58;;;;;;;;;21.00;19.33;;;;;22.20;39.26;101456.08;110403;1262;18741;-50
2022/05/01 04:20:26;;;;;;;;;21.00;20.00;;;;;22.20;39.34;101458.15;110439;1262;18741;-51
2022/05/01 04:22:53;;;;;;;;;22.67;19.67;;;;;22.20;39.18;101460.52;110443;1262;18310;-51
2022/05/01 04:25:20;;;;;;;;;18.00;18.00;;;;;22.20;39.43;101454.74;110309;1265;19328;-51
2022/05/01 04:27:47;;;;;;;;;20.00;19.00;;;;;22.20;39.31;101455.67;110450;1262;18854;-52
2022/05/01 04:30:14;;;;;;;;;21.50;18.00;;;;;22.20;39.25;101455.80;110454;1262;19591;-49
2022/05/01 04:32:42;;;;;;;;;20.67;19.67;;;;;22.20;39.28;101460.34;110394;1261;21411;-50
2022/05/01 04:35:10;;;;;;;;;18.00;17.00;;;;;22.21;39.35;101462.80;110423;1262;18737;-50
2022/05/01 04:37:37;;;;;;;;;22.33;21.00;;;;;22.22;39.35;101468.90;110413;1261;18264;-51
2022/05/01 04:40:04;;;;;;;;;22.33;20.00;;;;;22.22;39.20;101463.61;110411;1262;18840;-51
2022/05/01 04:42:33;;;;;;;;;21.00;17.67;;;;;22.22;39.46;101465.80;110467;1262;19824;-51
2022/05/01 04:45:01;;;;;;;;;20.00;19.00;;;;;22.22;39.31;101470.34;110450;1261;18176;-49
2022/05/01 04:47:28;;;;;;;;;22.33;20.67;;;;;22.23;39.21;101474.44;110423;1262;18809;-50
2022/05/01 04:49:55;;;;;;;;;20.00;18.00;;;;;22.23;39.17;101472.80;110390;1262;18797;-52
2022/05/01 04:52:23;;;;;;;;;21.33;20.67;;;;;22.22;39.25;101467.91;110472;1262;18252;-51
2022/05/01 04:54:50;;;;;;;;;22.00;21.67;;;;;22.23;39.27;101473.85;110428;1262;21748;-51
2022/05/01 04:57:17;;;;;;;;;21.33;20.00;;;;;22.23;39.23;101470.20;110490;1261;18762;-50
2022/05/01 04:59:44;;;;;;;;;27.67;24.00;;;;;22.24;39.30;101474.17;110416;1261;18221;-51
2022/05/01 05:02:11;;;;;;;;;20.00;18.00;;;;;22.24;39.30;101472.48;110286;1264;19220;-51
2022/05/01 05:04:39;;;;;;;;;18.67;17.00;;;;;22.24;39.37;101472.14;110435;1262;18716;-51
2022/05/01 05:07:06;;;;;;;;;20.67;20.00;;;;;22.24;39.18;101471.80;110300;1264;18219;-50
2022/05/01 05:12:19;;;;;;;;;20.50;20.50;;;;;22.26;39.05;101476.16;110402;1261;19373;-50
2022/05/01 05:14:49;;;;;;;;;23.00;22.00;;;;;22.26;39.36;101477.38;110405;1262;21870;-50
2022/05/01 05:17:18;;;;;;;;;22.00;21.67;;;;;22.27;39.27;101483.29;110314;1262;18662;-51
2022/05/01 05:19:45;;;;;;;;;20.00;18.00;;;;;22.28;39.27;101477.89;110323;1262;19647;-50
2022/05/01 05:22:13;;;;;;;;;21.33;19.33;;;;;22.29;39.20;101477.96;110312;1262;18609;-50
2022/05/01 05:24:40;;;;;;;;;20.00;17.67;;;;;22.30;39.25;101481.63;110312;1262;22222;-51
2022/05/01 05:27:07;;;;;;;;;21.00;21.00;;;;;22.31;39.13;101479.39;110306;1264;21573;-51
2022/05/01 05:29:34;;;;;;;;;21.00;20.00;;;;;22.32;39.08;101482.17;110437;1261;18190;-51
2022/05/01 05:32:02;;;;;;;;;24.33;20.33;;;;;22.34;39.10;101481.92;110401;1262;20563;-50
2022/05/01 05:34:29;;;;;;;;;23.50;20.00;;;;;22.36;39.02;101482.63;110379;1262;21592;-51
2022/05/01 05:36:56;;;;;;;;;24.00;22.67;;;;;22.37;39.10;101481.98;110441;1261;18530;-51
2022/05/01 05:39:24;;;;;;;;;25.50;24.50;;;;;22.38;39.08;101485.66;110299;1264;18740;-50
2022/05/01 05:41:51;;;;;;;;;30.00;25.00;;;;;22.39;39.09;101486.09;110373;1262;18945;-51
2022/05/01 05:44:18;;;;;;;;;23.50;21.00;;;;;22.39;39.05;101486.02;110353;1261;18282;-49
2022/05/01 05:46:46;;;;;;;;;31.33;24.00;;;;;22.44;39.00;101485.92;110216;1262;18847;-49
2022/05/01 05:49:13;;;;;;;;;25.00;22.00;;;;;22.49;39.27;101482.41;110353;1261;19446;-50
2022/05/01 05:51:40;;;;;;;;;24.33;21.00;;;;;22.54;39.60;101482.83;110291;1264;21916;-55
2022/05/01 05:54:07;;;;;;;;;25.00;22.33;;;;;22.59;39.98;101483.88;110308;1262;21099;-55
2022/05/01 05:56:35;;;;;;;;;27.67;25.00;;;;;22.60;39.98;101482.73;110338;1262;18713;-49
2022/05/01 05:59:02;;;;;;;;;22.00;22.00;;;;;22.59;39.99;101486.43;110400;1262;18186;-50
2022/05/01 06:01:29;;;;;;;;;32.33;29.00;;;;;22.54;39.76;101491.29;110410;1262;18855;-51
2022/05/01 06:03:56;;;;;;;;;31.00;27.33;;;;;22.49;39.77;101494.13;110292;1262;20258;-50
2022/05/01 06:06:23;;;;;;;;;33.00;32.00;;;;;22.44;39.42;101494.12;110342;1262;18172;-49
2022/05/01 06:08:51;;;;;;;;;34.50;30.50;;;;;22.38;39.18;101490.60;110330;1262;18774;-51
2022/05/01 06:11:18;;;;;;;;;30.00;28.00;;;;;22.48;39.26;101492.97;110386;1262;19333;-50
2022/05/01 06:13:45;;;;;;;;;34.00;29.67;;;;;22.59;39.33;101491.84;110314;1262;18296;-50
2022/05/01 06:16:12;;;;;;;;;33.67;30.00;;;;;22.66;39.42;101489.45;110358;1262;19134;-50
2022/05/01 06:18:40;;;;;;;;;30.00;30.00;;;;;22.76;39.89;101491.23;110419;1262;18693;-51
2022/05/01 06:21:07;;;;;;;;;28.67;26.00;;;;;22.84;39.68;101490.39;110355;1262;18249;-51
2022/05/01 06:23:35;;;;;;;;;31.33;27.00;;;;;22.85;39.61;101488.95;110267;1264;21006;-51
2022/05/01 06:26:04;;;;;;;;;29.00;26.00;;;;;22.85;39.76;101488.66;110243;1263;18979;-50
2022/05/01 06:28:31;;;;;;;;;36.67;29.33;;;;;22.85;39.94;101486.95;110274;1263;22014;-51
2022/05/01 06:30:59;;;;;;;;;26.00;25.00;;;;;22.86;40.22;101486.16;110278;1264;18740;-51
2022/05/01 06:33:26;;;;;;;;;33.67;29.00;;;;;22.87;40.51;101488.70;110242;1262;19164;-48
2022/05/01 06:35:53;;;;;;;;;29.67;26.33;;;;;22.95;40.68;101490.65;110245;1262;20704;-50
2022/05/01 06:38:20;;;;;;;;;31.67;27.67;;;;;23.02;40.85;101491.08;110253;1264;20293;-53
2022/05/01 06:40:47;;;;;;;;;33.33;27.67;;;;;23.10;40.99;101493.79;110261;1265;18673;-48
2022/05/01 06:43:15;;;;;;;;;26.00;25.00;;;;;23.15;41.38;101493.79;110262;1264;18209;-51
2022/05/01 06:45:42;;;;;;;;;30.00;28.50;;;;;23.17;42.68;101495.21;110309;1263;19067;-48
2022/05/01 06:48:10;;;;;;;;;27.67;27.33;;;;;23.20;43.22;101493.46;110306;1264;18735;-50
2022/05/01 06:50:37;;;;;;;;;24.67;24.00;;;;;23.22;43.11;101495.00;110242;1264;20132;-51
2022/05/01 06:53:04;;;;;;;;;30.33;26.33;;;;;23.18;43.04;101498.52;110289;1264;18665;-52
2022/05/01 06:55:31;;;;;;;;;26.00;23.00;;;;;23.13;43.05;101499.49;110243;1264;18824;-51
2022/05/01 06:57:59;;;;;;;;;25.67;25.33;;;;;23.09;42.73;101499.08;110256;1263;18276;-48
2022/05/01 07:00:26;;;;;;;;;25.33;25.33;;;;;23.09;42.83;101498.65;110129;1264;18747;-48
2022/05/01 07:02:53;;;;;;;;;25.00;24.33;;;;;23.11;42.61;101496.97;110017;1264;18731;-50
2022/05/01 07:05:21;;;;;;;;;29.33;26.67;;;;;23.10;42.12;101496.81;110189;1264;18427;-48
2022/05/01 07:07:48;;;;;;;;;32.50;29.50;;;;;22.95;40.45;101497.86;110170;1263;20013;-48
2022/05/01 07:10:16;;;;;;;;;33.00;26.67;;;;;22.86;39.01;101491.67;110165;1264;18799;-50
2022/05/01 07:12:43;;;;;;;;;29.50;27.00;;;;;22.78;37.84;101498.12;110091;1263;18529;-51
2022/05/01 07:15:10;;;;;;;;;26.33;26.00;;;;;22.76;37.11;101497.30;110211;1264;22269;-49
2022/05/01 07:17:37;;;;;;;;;25.67;24.67;;;;;22.73;36.36;101502.33;110259;1264;18722;-47
2022/05/01 07:20:05;;;;;;;;;28.67;25.33;;;;;22.71;35.51;101497.34;110222;1264;18391;-49
2022/05/01 07:22:32;;;;;;;;;24.50;24.00;;;;;22.67;34.83;101500.79;110277;1264;18801;-50
2022/05/01 07:24:59;;;;;;;;;23.67;22.00;;;;;22.73;34.39;101496.77;110241;1264;18912;-52
2022/05/01 07:27:26;;;;;;;;;21.00;21.00;;;;;22.73;33.87;101492.20;110250;1265;19509;-50
2022/05/01 07:29:54;;;;;;;;;22.33;21.33;;;;;22.70;33.59;101495.12;110249;1263;18855;-53
2022/05/01 07:32:21;;;;;;;;;21.67;20.33;;;;;22.69;33.55;101493.64;110239;1265;18830;-50
2022/05/01 07:34:48;;;;;;;;;22.00;21.00;;;;;22.70;33.57;101490.33;110265;1264;18239;-50
2022/05/01 07:37:16;;;;;;;;;23.00;20.50;;;;;22.66;33.21;101490.23;110245;1264;18677;-51
2022/05/01 07:39:44;;;;;;;;;25.50;21.50;;;;;22.66;33.60;101489.34;110089;1265;193151;-52
2022/05/01 07:42:11;;;;;;;;;27.67;22.33;;;;;22.63;33.47;101491.09;110304;1264;18214;-51
2022/05/01 07:44:38;;;;;;;;;24.33;21.33;;;;;22.63;32.78;101486.48;110186;1262;18969;-50
2022/05/01 07:47:06;;;;;;;;;21.00;19.00;;;;;22.69;32.90;101491.09;110264;1265;20186;-48
2022/05/01 07:49:33;;;;;;;;;22.00;21.00;;;;;22.75;32.70;101488.83;110283;1264;18175;-53
2022/05/01 07:52:00;;;;;;;;;25.67;25.67;;;;;22.81;32.42;101490.95;110271;1265;20960;-51
2022/05/01 07:54:27;;;;;;;;;26.00;25.00;;;;;22.80;32.26;101489.55;110344;1265;22066;-51
2022/05/01 07:56:54;;;;;;;;;27.33;26.33;;;;;22.80;32.40;101490.09;110293;1264;18233;-50
2022/05/01 07:59:22;;;;;;;;;26.00;22.33;;;;;22.85;32.19;101488.49;110198;1265;18756;-51
2022/05/01 08:01:49;;;;;;;;;27.00;24.00;;;;;22.87;32.66;101490.17;110257;1264;18709;-51
2022/05/01 08:04:28;;;;;;;;;23.50;22.00;;;;;22.86;32.49;101488.34;110260;1264;18250;-50
2022/05/01 08:06:56;;;;;;;;;24.33;21.67;;;;;22.88;32.51;101486.25;110255;1264;20641;-50
2022/05/01 08:09:23;;;;;;;;;24.00;21.50;;;;;22.93;32.56;101481.02;110223;1263;18985;-49
2022/05/01 08:11:51;;;;;;;;;18.67;17.00;;;;;22.97;32.17;101481.80;110298;1264;19669;-47
2022/05/01 08:14:18;;;;;;;;;18.33;17.33;;;;;22.95;32.08;101477.31;110282;1265;18868;-51
2022/05/01 08:16:46;;;;;;;;;22.00;20.00;;;;;22.88;31.53;101479.38;110263;1264;21027;-50
2022/05/01 08:21:58;;;;;;;;;20.33;18.67;;;;;22.83;31.51;101472.21;110300;1262;19005;-51
2022/05/01 08:24:26;;;;;;;;;20.33;17.67;;;;;22.97;31.58;101472.57;110221;1264;19549;-51
2022/05/01 08:26:53;;;;;;;;;18.67;18.67;;;;;23.00;31.95;101474.00;110138;1264;20181;-50
2022/05/01 08:29:20;;;;;;;;;16.00;16.00;;;;;22.99;31.77;101469.39;110187;1262;18713;-50
2022/05/01 08:31:48;;;;;;;;;17.67;17.00;;;;;23.04;32.37;101467.70;110121;1262;18790;-52
2022/05/01 08:34:16;;;;;;;;;19.00;18.00;;;;;23.16;32.81;101466.54;110145;1262;18466;-50
2022/05/01 08:36:45;;;;;;;;;21.00;18.00;;;;;23.19;33.23;101459.19;110323;1262;18699;-49
2022/05/01 08:39:12;;;;;;;;;19.00;18.00;;;;;23.22;33.63;101458.00;110316;1262;18759;-51
2022/05/01 08:41:40;;;;;;;;;19.33;18.00;;;;;23.22;33.83;101456.38;110294;1262;18509;-51
2022/05/01 08:44:07;;;;;;;;;19.00;17.50;;;;;23.20;34.22;101455.84;110321;1262;18739;-51
2022/05/01 08:46:34;;;;;;;;;19.00;18.67;;;;;23.17;34.48;101453.37;110336;1262;18753;-50
2022/05/01 08:49:04;;;;;;;;;14.67;14.33;;;;;23.16;34.62;101450.43;110327;1262;18566;-51
2022/05/01 08:51:32;;;;;;;;;17.67;17.33;;;;;23.14;34.79;101449.35;110344;1264;21016;-51
2022/05/01 08:54:00;;;;;;;;;15.00;14.00;;;;;23.15;34.82;101450.16;110376;1262;18780;-51
2022/05/01 08:56:27;;;;;;;;;17.00;17.00;;;;;23.15;35.02;101450.79;110389;1262;22238;-51
2022/05/01 08:58:54;;;;;;;;;14.67;14.00;;;;;23.14;35.08;101449.64;110340;1261;18863;-51
2022/05/01 09:01:22;;;;;;;;;19.00;17.00;;;;;23.12;35.18;101446.20;110242;1262;18962;-50
2022/05/01 09:03:49;;;;;;;;;13.33;13.33;;;;;23.11;35.23;101444.84;110352;1262;18680;-50
2022/05/01 09:06:17;;;;;;;;;15.00;15.00;;;;;23.10;35.24;101444.73;110326;1264;18772;-52
2022/05/01 09:08:44;;;;;;;;;18.33;15.67;;;;;23.10;35.36;101440.53;110307;1264;18724;-50
2022/05/01 09:13:56;;;;;;;;;18.00;17.00;;;;;23.06;35.57;101440.14;110297;1264;22003;-52
2022/05/01 09:16:24;;;;;;;;;15.00;15.00;;;;;23.06;35.51;101437.00;110281;1264;18697;-50
2022/05/01 09:18:52;;;;;;;;;18.33;17.00;;;;;23.05;35.64;101435.63;110294;1264;18348;-50
2022/05/01 09:21:19;;;;;;;;;18.00;15.00;;;;;23.06;35.76;101430.70;110336;1263;18704;-54
2022/05/01 09:23:46;;;;;;;;;14.00;14.00;;;;;23.05;35.69;101427.28;110262;1264;18997;-50
2022/05/01 09:26:13;;;;;;;;;14.67;14.33;;;;;23.04;35.73;101424.45;110254;1265;18663;-51
2022/05/01 09:28:41;;;;;;;;;18.50;17.50;;;;;23.04;35.86;101426.10;110316;1264;18748;-50
2022/05/01 09:31:08;;;;;;;;;17.00;15.00;;;;;23.03;35.91;101420.95;110303;1264;18734;-57
2022/05/01 09:33:35;;;;;;;;;18.33;17.33;;;;;23.03;35.91;101422.63;110347;1264;20753;-50
2022/05/01 09:36:02;;;;;;;;;18.67;17.67;;;;;23.04;35.94;101423.23;110288;1264;18961;-51
2022/05/01 09:38:30;;;;;;;;;17.33;15.67;;;;;23.03;35.94;101423.92;110280;1265;18719;-50
2022/05/01 09:40:58;;;;;;;;;17.33;14.33;;;;;23.03;36.00;101417.77;110268;1262;18203;-46
2022/05/01 09:43:25;;;;;;;;;14.00;14.00;;;;;23.03;35.95;101415.39;110311;1264;19150;-50
2022/05/01 09:45:52;;;;;;;;;15.00;14.67;;;;;23.03;36.03;101409.58;110284;1264;19664;-50
2022/05/01 09:48:20;;;;;;;;;15.00;15.00;;;;;23.02;36.10;101410.91;110313;1263;18235;-51
2022/05/01 09:50:48;;;;;;;;;17.33;14.00;;;;;23.01;36.03;101405.13;110261;1264;20575;-51
2022/05/01 09:53:16;;;;;;;;;15.33;14.33;;;;;23.01;36.21;101403.23;110279;1264;18663;-49
2022/05/01 09:55:43;;;;;;;;;15.00;14.00;;;;;22.99;36.12;101403.18;110320;1263;18352;-50
2022/05/01 09:58:10;;;;;;;;;19.00;18.00;;;;;22.98;36.12;101403.09;110332;1264;18891;-50
2022/05/01 10:00:38;;;;;;;;;15.00;14.00;;;;;22.98;36.10;101400.80;110323;1264;20535;-51
2022/05/01 10:03:06;;;;;;;;;14.33;14.00;;;;;22.98;36.15;101400.02;110309;1264;18403;-50
2022/05/01 10:05:33;;;;;;;;;15.00;14.33;;;;;22.97;36.38;101400.20;110294;1263;19229;-50
2022/05/01 10:08:00;;;;;;;;;18.33;17.00;;;;;22.97;36.38;101396.91;110258;1264;19307;-51
2022/05/01 10:10:27;;;;;;;;;15.00;14.67;;;;;22.97;36.36;101392.58;110309;1264;18245;-51
2022/05/01 10:12:55;;;;;;;;;14.50;14.00;;;;;22.97;36.26;101387.48;110320;1265;18749;-51
2022/05/01 10:15:22;;;;;;;;;14.67;13.67;;;;;22.97;36.15;101390.55;110325;1264;22752;-51
2022/05/01 10:17:49;;;;;;;;;13.67;12.33;;;;;22.95;36.39;101385.29;110302;1264;18300;-53
2022/05/01 10:20:17;;;;;;;;;15.00;14.00;;;;;22.94;36.33;101380.98;110285;1262;18716;-51
2022/05/01 10:22:44;;;;;;;;;15.00;15.00;;;;;22.93;36.46;101377.60;110306;1263;19342;-50
2022/05/01 10:25:12;;;;;;;;;12.33;12.33;;;;;22.92;36.33;101373.00;110291;1265;18199;-54
2022/05/01 10:27:39;;;;;;;;;15.00;14.00;;;;;22.92;36.41;101374.64;110353;1264;18729;-51
2022/05/01 10:32:51;;;;;;;;;11.67;11.00;;;;;22.92;36.21;101371.90;110288;1264;18226;-51
2022/05/01 10:35:19;;;;;;;;;15.67;14.00;;;;;22.91;36.33;101373.27;110309;1264;18661;-51
2022/05/01 10:37:46;;;;;;;;;14.00;13.00;;;;;22.91;36.22;101372.18;110255;1264;18735;-51
2022/05/01 10:40:13;;;;;;;;;13.00;11.67;;;;;22.89;36.34;101374.25;110288;1264;18253;-52
2022/05/01 10:42:40;;;;;;;;;13.33;13.00;;;;;22.88;36.29;101368.34;110330;1264;18783;-50
2022/05/01 10:45:08;;;;;;;;;14.00;13.00;;;;;22.88;36.35;101371.16;110314;1264;21978;-52
2022/05/01 10:47:36;;;;;;;;;11.67;11.67;;;;;22.88;36.32;101361.31;110287;1264;18222;-52
2022/05/01 10:50:03;;;;;;;;;14.00;11.00;;;;;22.88;36.38;101362.39;110270;1264;19166;-51
2022/05/01 10:52:30;;;;;;;;;13.33;11.00;;;;;22.86;36.37;101362.57;110291;1265;18727;-52
2022/05/01 10:54:59;;;;;;;;;12.67;12.67;;;;;22.85;36.44;101359.36;110291;1264;22004;-51
2022/05/01 10:57:26;;;;;;;;;13.50;13.00;;;;;22.85;36.40;101359.73;110344;1264;18667;-51
2022/05/01 10:59:54;;;;;;;;;13.00;13.00;;;;;22.85;36.35;101359.09;110289;1262;22104;-50
2022/05/01 11:02:22;;;;;;;;;13.00;12.67;;;;;22.84;36.48;101355.38;110312;1265;18260;-51
2022/05/01 11:04:50;;;;;;;;;16.00;13.00;;;;;22.83;36.44;101353.77;110290;1264;19435;-50
2022/05/01 11:07:18;;;;;;;;;12.00;12.00;;;;;22.83;36.63;101352.89;110324;1264;18769;-51
2022/05/01 11:09:46;;;;;;;;;11.33;10.67;;;;;22.82;36.53;101345.56;110293;1264;21589;-51
2022/05/01 11:12:14;;;;;;;;;11.33;11.33;;;;;22.82;36.43;101349.20;110327;1264;21370;-51
2022/05/01 11:14:41;;;;;;;;;15.00;14.00;;;;;22.80;36.50;101348.48;110306;1264;18778;-50
2022/05/01 11:17:09;;;;;;;;;10.00;10.00;;;;;22.80;36.47;101347.75;110306;1264;22194;-52
2022/05/01 11:19:37;;;;;;;;;12.33;11.00;;;;;22.81;36.50;101347.14;110253;1264;18726;-55
2022/05/01 11:22:04;;;;;;;;;13.67;11.00;;;;;22.80;36.53;101344.68;110269;1264;18866;-48
2022/05/01 11:24:31;;;;;;;;;13.00;11.00;;;;;22.79;36.54;101343.32;110338;1264;18386;-49
2022/05/01 11:26:59;;;;;;;;;11.67;10.00;;;;;22.80;36.50;101338.84;110236;1265;19200;-52